createdAt,value
2018-07-17T00:02:15.336Z,1.90
2018-07-17T00:04:42.843Z,1.70
2018-07-17T00:07:10.303Z,2.00
2018-07-17T00:09:37.783Z,2.10
2018-07-17T00:12:05.226Z,2.17
2018-07-17T00:14:32.696Z,2.10
2018-07-17T00:17:00.148Z,2.00
2018-07-17T00:19:27.730Z,1.70
2018-07-17T00:21:55.200Z,1.97
2018-07-17T00:24:22.651Z,1.67
2018-07-17T00:26:50.119Z,1.87
2018-07-17T00:29:17.585Z,2.50
2018-07-17T00:31:45.049Z,1.77
2018-07-17T00:34:12.968Z,2.40
2018-07-17T00:36:40.445Z,2.00
2018-07-17T00:39:07.900Z,2.13
2018-07-17T00:41:35.353Z,2.03
2018-07-17T00:44:02.833Z,1.70
2018-07-17T00:46:30.275Z,2.23
2018-07-17T00:48:57.749Z,2.07
2018-07-17T00:51:25.245Z,1.97
2018-07-17T00:53:52.723Z,2.63
2018-07-17T00:56:20.996Z,2.13
2018-07-17T00:58:48.435Z,1.77
2018-07-17T01:01:21.576Z,2.40
2018-07-17T01:03:55.544Z,3.00
2018-07-17T01:06:28.811Z,2.57
2018-07-17T01:09:02.118Z,3.43
2018-07-17T01:11:35.312Z,3.90
2018-07-17T01:14:02.771Z,3.87
2018-07-17T01:16:30.252Z,4.40
2018-07-17T01:18:57.709Z,4.10
2018-07-17T01:21:25.762Z,3.63
2018-07-17T01:23:53.214Z,3.37
2018-07-17T01:26:20.683Z,4.47
2018-07-17T01:28:48.142Z,6.17
2018-07-17T01:31:15.598Z,7.57
2018-07-17T01:33:43.111Z,6.13
2018-07-17T01:36:12.104Z,5.53
2018-07-17T01:38:39.577Z,8.03
2018-07-17T01:41:08.556Z,8.57
2018-07-17T01:43:36.025Z,8.40
2018-07-17T01:46:04.273Z,8.97
2018-07-17T01:48:31.737Z,6.03
2018-07-17T01:50:59.199Z,10.53
2018-07-17T01:53:26.651Z,8.43
2018-07-17T01:55:54.130Z,6.20
2018-07-17T01:58:21.588Z,8.27
2018-07-17T02:00:49.047Z,6.53
2018-07-17T02:03:16.516Z,6.53
2018-07-17T02:05:43.964Z,6.53
2018-07-17T02:08:11.424Z,7.43
2018-07-17T02:10:38.879Z,6.20
2018-07-17T02:13:06.343Z,7.33
2018-07-17T02:15:33.803Z,7.60
2018-07-17T02:18:01.269Z,7.33
2018-07-17T02:20:28.724Z,7.03
2018-07-17T02:22:56.189Z,7.37
2018-07-17T02:25:23.648Z,7.07
2018-07-17T02:27:51.096Z,6.00
2018-07-17T02:30:19.338Z,6.43
2018-07-17T02:32:46.809Z,5.37
2018-07-17T02:35:15.040Z,5.27
2018-07-17T02:37:42.499Z,5.33
2018-07-17T02:40:09.955Z,5.57
2018-07-17T02:42:37.460Z,9.67
2018-07-17T02:45:04.928Z,6.83
2018-07-17T02:47:32.386Z,10.87
2018-07-17T02:49:59.964Z,11.13
2018-07-17T02:52:27.511Z,6.47
2018-07-17T02:54:54.983Z,7.17
2018-07-17T02:57:22.442Z,7.93
2018-07-17T02:59:49.908Z,9.90
2018-07-17T03:02:17.467Z,8.47
2018-07-17T03:04:44.925Z,7.90
2018-07-17T03:07:12.465Z,9.30
2018-07-17T03:09:39.841Z,11.37
2018-07-17T03:12:07.299Z,6.43
2018-07-17T03:14:34.886Z,12.10
2018-07-17T03:17:03.691Z,12.20
2018-07-17T03:19:31.146Z,11.03
2018-07-17T03:21:59.377Z,9.30
2018-07-17T03:24:26.887Z,9.90
2018-07-17T03:26:54.307Z,9.50
2018-07-17T03:29:21.811Z,11.00
2018-07-17T03:31:49.374Z,9.70
2018-07-17T03:34:16.829Z,6.23
2018-07-17T03:36:44.296Z,8.83
2018-07-17T03:39:11.744Z,8.73
2018-07-17T03:41:39.203Z,8.47
2018-07-17T03:44:06.664Z,6.83
2018-07-17T03:46:34.131Z,6.27
2018-07-17T03:49:01.594Z,5.90
2018-07-17T03:51:29.069Z,4.03
2018-07-17T03:53:57.357Z,3.73
2018-07-17T03:56:24.824Z,6.00
2018-07-17T03:58:52.373Z,4.67
2018-07-17T04:01:19.864Z,6.27
2018-07-17T04:03:47.319Z,5.67
2018-07-17T04:06:14.868Z,6.17
2018-07-17T04:08:42.335Z,5.70
2018-07-17T04:11:09.787Z,4.07
2018-07-17T04:13:37.254Z,4.83
2018-07-17T04:16:04.711Z,4.70
2018-07-17T04:18:32.187Z,8.03
2018-07-17T04:20:59.635Z,7.53
2018-07-17T04:23:27.196Z,5.43
2018-07-17T04:25:54.668Z,7.27
2018-07-17T04:28:22.230Z,8.30
2018-07-17T04:30:49.684Z,6.27
2018-07-17T04:33:17.161Z,5.73
2018-07-17T04:35:45.386Z,7.33
2018-07-17T04:38:13.744Z,6.03
2018-07-17T04:40:41.277Z,6.53
2018-07-17T04:43:08.849Z,7.45
2018-07-17T04:45:36.312Z,7.23
2018-07-17T04:48:04.644Z,7.17
2018-07-17T04:50:32.144Z,5.93
2018-07-17T04:52:59.617Z,8.13
2018-07-17T04:55:27.172Z,6.47
2018-07-17T04:57:54.645Z,3.97
2018-07-17T05:00:22.862Z,4.23
2018-07-17T05:02:51.107Z,6.93
2018-07-17T05:05:19.372Z,7.23
2018-07-17T05:07:46.928Z,3.83
2018-07-17T05:10:14.407Z,5.00
2018-07-17T05:12:43.036Z,5.40
2018-07-17T05:15:11.275Z,7.07
2018-07-17T05:17:40.263Z,6.10
2018-07-17T05:20:07.716Z,5.23
2018-07-17T05:22:35.177Z,4.80
2018-07-17T05:25:02.647Z,4.70
2018-07-17T05:27:30.109Z,4.80
2018-07-17T05:29:57.668Z,3.50
2018-07-17T05:32:25.143Z,2.53
2018-07-17T05:34:52.605Z,3.20
2018-07-17T05:37:20.065Z,2.73
2018-07-17T05:39:47.520Z,3.90
2018-07-17T05:42:14.982Z,2.13
2018-07-17T05:44:42.442Z,3.23
2018-07-17T05:47:09.953Z,2.03
2018-07-17T05:49:38.222Z,2.57
2018-07-17T05:52:05.819Z,4.37
2018-07-17T05:54:33.174Z,3.93
2018-07-17T05:57:00.720Z,3.70
2018-07-17T05:59:28.972Z,2.50
2018-07-17T06:01:56.461Z,3.00
2018-07-17T06:04:24.700Z,2.30
2018-07-17T06:06:52.303Z,2.30
2018-07-17T06:09:21.340Z,2.20
2018-07-17T06:11:48.906Z,2.87
2018-07-17T06:14:16.396Z,3.43
2018-07-17T06:16:43.852Z,2.30
2018-07-17T06:19:11.307Z,5.53
2018-07-17T06:21:38.789Z,5.53
2018-07-17T06:24:06.231Z,2.53
2018-07-17T06:26:33.687Z,2.33
2018-07-17T06:29:01.173Z,3.90
2018-07-17T06:31:29.203Z,4.23
2018-07-17T06:33:56.714Z,3.77
2018-07-17T06:36:24.275Z,3.97
2018-07-17T06:38:51.755Z,4.60
2018-07-17T06:41:19.223Z,3.63
2018-07-17T06:43:47.443Z,3.30
2018-07-17T06:46:14.919Z,3.93
2018-07-17T06:48:42.362Z,3.37
2018-07-17T06:51:09.824Z,4.90
2018-07-17T06:53:37.278Z,3.10
2018-07-17T06:56:04.744Z,5.57
2018-07-17T06:58:32.196Z,4.73
2018-07-17T07:00:59.662Z,6.00
2018-07-17T07:03:27.173Z,4.77
2018-07-17T07:05:54.652Z,5.17
2018-07-17T07:08:24.099Z,2.70
2018-07-17T07:10:51.559Z,3.03
2018-07-17T07:15:41.466Z,4.00
2018-07-17T07:18:08.932Z,4.53
2018-07-17T07:20:36.439Z,2.60
2018-07-17T07:23:03.900Z,4.07
2018-07-17T07:25:31.372Z,3.30
2018-07-17T07:27:58.926Z,2.37
2018-07-17T07:30:26.391Z,3.43
2018-07-17T07:32:53.958Z,2.70
2018-07-17T07:35:21.424Z,3.07
2018-07-17T07:37:48.891Z,2.90
2018-07-17T07:40:16.352Z,2.80
2018-07-17T07:42:43.863Z,2.20
2018-07-17T07:45:12.764Z,2.83
2018-07-17T07:47:40.225Z,3.17
2018-07-17T07:50:07.728Z,2.67
2018-07-17T07:52:35.188Z,3.97
2018-07-17T07:55:04.176Z,3.20
2018-07-17T07:57:31.750Z,3.37
2018-07-17T07:59:59.306Z,2.47
2018-07-17T08:02:26.770Z,5.00
2018-07-17T08:04:54.336Z,3.07
2018-07-17T08:07:21.895Z,2.40
2018-07-17T08:09:49.458Z,2.63
2018-07-17T08:12:17.063Z,2.67
2018-07-17T08:14:45.286Z,2.87
2018-07-17T08:17:12.775Z,2.60
2018-07-17T08:19:40.253Z,2.43
2018-07-17T08:22:07.705Z,2.57
2018-07-17T08:24:35.147Z,3.03
2018-07-17T08:27:02.622Z,3.03
2018-07-17T08:29:30.189Z,2.77
2018-07-17T08:31:57.659Z,2.73
2018-07-17T08:34:25.895Z,3.13
2018-07-17T08:36:53.416Z,2.47
2018-07-17T08:39:21.672Z,2.97
2018-07-17T08:41:49.170Z,4.20
2018-07-17T08:44:17.380Z,3.70
2018-07-17T08:46:44.874Z,3.23
2018-07-17T08:49:12.530Z,2.73
2018-07-17T08:51:39.997Z,2.83
2018-07-17T08:54:07.517Z,3.17
2018-07-17T08:56:34.912Z,2.87
2018-07-17T08:59:02.401Z,2.13
2018-07-17T09:01:30.651Z,2.33
2018-07-17T09:03:59.281Z,3.10
2018-07-17T09:06:27.547Z,3.03
2018-07-17T09:08:55.785Z,3.33
2018-07-17T09:11:23.238Z,2.57
2018-07-17T09:13:50.742Z,2.80
2018-07-17T09:16:18.334Z,4.03
2018-07-17T09:18:45.886Z,3.00
2018-07-17T09:21:15.003Z,2.63
2018-07-17T09:23:42.447Z,2.63
2018-07-17T09:26:10.694Z,2.50
2018-07-17T09:28:38.175Z,2.70
2018-07-17T09:31:05.711Z,2.73
2018-07-17T09:33:33.180Z,2.90
2018-07-17T09:36:00.660Z,2.77
2018-07-17T09:38:28.121Z,2.10
2018-07-17T09:40:55.699Z,2.40
2018-07-17T09:43:23.170Z,3.10
2018-07-17T09:45:52.157Z,2.03
2018-07-17T09:48:19.620Z,2.13
2018-07-17T09:50:47.100Z,3.43
2018-07-17T09:53:14.564Z,3.20
2018-07-17T09:55:42.063Z,1.90
2018-07-17T09:58:09.589Z,2.13
2018-07-17T10:00:37.074Z,2.17
2018-07-17T10:03:04.523Z,3.40
2018-07-17T10:05:32.788Z,3.10
2018-07-17T10:08:00.364Z,2.30
2018-07-17T10:10:28.587Z,8.97
2018-07-17T10:12:56.074Z,1.70
2018-07-17T10:15:23.533Z,2.30
2018-07-17T10:17:51.105Z,3.10
2018-07-17T10:20:18.588Z,2.47
2018-07-17T10:22:46.496Z,3.83
2018-07-17T10:25:13.986Z,2.80
2018-07-17T10:27:41.573Z,2.60
2018-07-17T10:30:09.057Z,2.00
2018-07-17T10:32:36.574Z,3.27
2018-07-17T10:35:04.059Z,1.87
2018-07-17T10:37:31.519Z,2.13
2018-07-17T10:39:59.088Z,2.67
2018-07-17T10:42:28.080Z,1.87
2018-07-17T10:44:55.644Z,2.10
2018-07-17T10:47:23.141Z,1.87
2018-07-17T10:49:50.675Z,1.83
2018-07-17T10:52:18.236Z,1.63
2018-07-17T10:54:45.805Z,4.10
2018-07-17T10:57:13.263Z,1.90
2018-07-17T10:59:41.191Z,1.77
2018-07-17T11:02:08.707Z,3.30
2018-07-17T11:04:36.166Z,9.93
2018-07-17T11:07:04.415Z,2.93
2018-07-17T11:09:31.895Z,3.53
2018-07-17T11:11:59.361Z,2.37
2018-07-17T11:14:26.812Z,2.53
2018-07-17T11:16:54.386Z,1.47
2018-07-17T11:19:21.952Z,1.67
2018-07-17T11:21:49.411Z,1.80
2018-07-17T11:24:16.975Z,2.37
2018-07-17T11:26:44.447Z,3.10
2018-07-17T11:29:11.889Z,1.53
2018-07-17T11:31:39.356Z,2.00
2018-07-17T11:34:06.810Z,1.53
2018-07-17T11:36:34.266Z,1.63
2018-07-17T11:39:01.754Z,1.93
2018-07-17T11:41:29.317Z,2.00
2018-07-17T11:43:56.775Z,1.73
2018-07-17T11:46:24.248Z,1.67
2018-07-17T11:48:51.694Z,1.50
2018-07-17T11:51:19.268Z,1.70
2018-07-17T11:53:46.828Z,1.73
2018-07-17T11:56:14.288Z,2.60
2018-07-17T11:58:41.858Z,1.60
2018-07-17T12:01:09.417Z,2.67
2018-07-17T12:03:36.879Z,1.40
2018-07-17T12:06:04.349Z,4.53
2018-07-17T12:08:31.916Z,2.23
2018-07-17T12:10:59.374Z,2.17
2018-07-17T12:13:26.944Z,2.10
2018-07-17T12:15:55.945Z,2.67
2018-07-17T12:18:24.689Z,1.77
2018-07-17T12:20:52.188Z,2.43
2018-07-17T12:23:19.646Z,2.20
2018-07-17T12:25:47.103Z,2.43
2018-07-17T12:28:14.571Z,2.53
2018-07-17T12:30:42.039Z,2.17
2018-07-17T12:33:09.602Z,3.90
2018-07-17T12:35:37.168Z,4.97
2018-07-17T12:38:04.614Z,2.47
2018-07-17T12:40:32.088Z,2.93
2018-07-17T12:42:59.653Z,2.47
2018-07-17T12:45:27.211Z,3.87
2018-07-17T12:47:54.664Z,3.47
2018-07-17T12:50:22.123Z,4.43
2018-07-17T12:52:49.577Z,3.37
2018-07-17T12:55:17.439Z,1.77
2018-07-17T12:57:44.883Z,2.53
2018-07-17T13:00:12.359Z,2.40
2018-07-17T13:02:39.875Z,3.17
2018-07-17T13:05:07.420Z,2.37
2018-07-17T13:07:34.992Z,1.90
2018-07-17T13:10:03.990Z,2.33
2018-07-17T13:12:31.557Z,2.00
2018-07-17T13:14:59.024Z,2.67
2018-07-17T13:17:26.486Z,2.87
2018-07-17T13:19:54.715Z,2.53
2018-07-17T13:22:22.166Z,2.17
2018-07-17T13:24:49.619Z,2.20
2018-07-17T13:27:17.848Z,2.60
2018-07-17T13:29:45.307Z,2.23
2018-07-17T13:32:12.771Z,2.30
2018-07-17T13:34:40.347Z,2.43
2018-07-17T13:37:07.812Z,2.13
2018-07-17T13:39:35.274Z,2.97
2018-07-17T13:42:02.723Z,2.47
2018-07-17T13:44:30.286Z,1.90
2018-07-17T13:46:57.744Z,2.23
2018-07-17T13:49:25.200Z,6.20
2018-07-17T13:51:52.651Z,2.70
2018-07-17T13:54:20.111Z,2.47
2018-07-17T13:56:47.571Z,1.90
2018-07-17T13:59:15.068Z,1.90
2018-07-17T14:01:42.524Z,3.00
2018-07-17T14:04:09.971Z,1.73
2018-07-17T14:06:37.440Z,2.10
2018-07-17T14:09:04.908Z,1.73
2018-07-17T14:11:32.375Z,2.03
2018-07-17T14:14:00.416Z,3.57
2018-07-17T14:16:27.884Z,2.77
2018-07-17T14:18:55.347Z,2.83
2018-07-17T14:21:22.820Z,4.00
2018-07-17T14:23:50.316Z,4.03
2018-07-17T14:26:17.778Z,3.50
2018-07-17T14:28:45.326Z,3.03
2018-07-17T14:31:12.794Z,3.00
2018-07-17T14:33:40.352Z,2.13
2018-07-17T14:36:07.940Z,2.60
2018-07-17T14:38:35.400Z,3.37
2018-07-17T14:41:02.848Z,3.00
2018-07-17T14:43:30.308Z,3.47
2018-07-17T14:45:57.868Z,2.03
2018-07-17T14:48:25.332Z,2.37
2018-07-17T14:50:53.979Z,2.37
2018-07-17T14:53:22.179Z,1.80
2018-07-17T14:55:49.670Z,2.27
2018-07-17T14:58:17.142Z,2.63
2018-07-17T15:00:44.697Z,3.83
2018-07-17T15:03:12.152Z,3.13
2018-07-17T15:05:39.724Z,1.80
2018-07-17T15:08:07.181Z,4.33
2018-07-17T15:10:34.653Z,2.37
2018-07-17T15:13:02.923Z,2.70
2018-07-17T15:15:30.487Z,3.67
2018-07-17T15:17:57.861Z,2.70
2018-07-17T15:20:25.314Z,2.67
2018-07-17T15:22:52.867Z,2.47
2018-07-17T15:25:20.349Z,2.70
2018-07-17T15:27:48.650Z,2.53
2018-07-17T15:30:16.043Z,2.10
2018-07-17T15:32:43.535Z,2.10
2018-07-17T15:35:11.068Z,2.17
2018-07-17T15:37:38.475Z,2.00
2018-07-17T15:40:05.924Z,1.90
2018-07-17T15:42:33.517Z,1.70
2018-07-17T15:45:01.057Z,2.03
2018-07-17T15:47:28.610Z,1.70
2018-07-17T15:49:57.024Z,1.70
2018-07-17T15:52:24.476Z,2.90
2018-07-17T15:54:53.465Z,2.13
2018-07-17T15:57:20.919Z,2.17
2018-07-17T15:59:48.545Z,1.30
2018-07-17T16:02:17.481Z,1.50
2018-07-17T16:04:44.932Z,1.50
2018-07-17T16:07:12.414Z,1.60
2018-07-17T16:09:40.549Z,1.70
2018-07-17T16:12:08.056Z,2.10
2018-07-17T16:14:35.523Z,1.50
2018-07-17T16:17:04.488Z,2.10
2018-07-17T16:19:31.951Z,3.33
2018-07-17T16:21:59.435Z,2.80
2018-07-17T16:24:27.000Z,2.90
2018-07-17T16:26:54.464Z,2.00
2018-07-17T16:29:22.027Z,2.03
2018-07-17T16:31:49.503Z,2.00
2018-07-17T16:34:18.489Z,2.80
2018-07-17T16:36:46.094Z,1.90
2018-07-17T16:39:13.618Z,2.03
2018-07-17T16:41:41.186Z,2.00
2018-07-17T16:44:10.143Z,1.83
2018-07-17T16:46:37.743Z,1.80
2018-07-17T16:49:05.201Z,3.37
2018-07-17T16:51:32.697Z,1.73
2018-07-17T16:54:00.981Z,1.97
2018-07-17T16:56:29.946Z,1.77
2018-07-17T16:58:57.410Z,1.70
2018-07-17T17:01:24.911Z,1.70
2018-07-17T17:03:52.432Z,1.50
2018-07-17T17:06:19.998Z,1.70
2018-07-17T17:08:47.462Z,1.77
2018-07-17T17:11:14.913Z,1.83
2018-07-17T17:13:42.491Z,2.77
2018-07-17T17:16:10.732Z,1.67
2018-07-17T17:18:38.191Z,1.60
2018-07-17T17:21:06.155Z,2.20
2018-07-17T17:23:35.175Z,1.83
2018-07-17T17:26:02.701Z,3.13
2018-07-17T17:28:30.914Z,2.73
2018-07-17T17:30:58.407Z,2.87
2018-07-17T17:33:25.880Z,2.90
2018-07-17T17:35:54.852Z,1.70
2018-07-17T17:38:22.312Z,2.23
2018-07-17T17:40:49.776Z,3.77
2018-07-17T17:43:17.243Z,2.67
2018-07-17T17:45:44.712Z,3.23
2018-07-17T17:48:12.302Z,2.00
2018-07-17T17:50:39.853Z,2.90
2018-07-17T17:53:07.317Z,1.80
2018-07-17T17:55:35.552Z,2.30
2018-07-17T17:58:03.037Z,2.57
2018-07-17T18:00:30.489Z,1.77
2018-07-17T18:02:57.975Z,1.90
2018-07-17T18:05:26.205Z,3.30
2018-07-17T18:07:53.664Z,1.97
2018-07-17T18:10:21.137Z,1.60
2018-07-17T18:12:48.591Z,1.47
2018-07-17T18:15:16.104Z,3.10
2018-07-17T18:17:43.568Z,2.97
2018-07-17T18:20:12.544Z,1.60
2018-07-17T18:22:40.024Z,2.77
2018-07-17T18:25:07.492Z,2.50
2018-07-17T18:27:34.970Z,1.40
2018-07-17T18:30:02.433Z,1.87
2018-07-17T18:32:29.981Z,1.50
2018-07-17T18:34:58.944Z,1.67
2018-07-17T18:37:26.533Z,3.00
2018-07-17T18:39:54.097Z,2.60
2018-07-17T18:42:22.521Z,1.50
2018-07-17T18:44:50.777Z,1.53
2018-07-17T18:47:18.999Z,2.00
2018-07-17T18:49:46.474Z,1.90
2018-07-17T18:52:13.965Z,2.40
2018-07-17T18:54:41.406Z,2.27
2018-07-17T18:57:09.002Z,2.50
2018-07-17T18:59:36.360Z,2.23
2018-07-17T19:02:03.921Z,2.80
2018-07-17T19:04:31.468Z,1.43
2018-07-17T19:06:58.922Z,2.47
2018-07-17T19:09:26.399Z,2.03
2018-07-17T19:11:53.873Z,1.73
2018-07-17T19:14:21.529Z,1.97
2018-07-17T19:16:49.017Z,2.97
2018-07-17T19:19:16.731Z,4.22
2018-07-17T19:21:44.225Z,2.37
2018-07-17T19:24:11.684Z,2.70
2018-07-17T19:26:39.153Z,3.33
2018-07-17T19:29:06.634Z,1.60
2018-07-17T19:31:35.610Z,2.17
2018-07-17T19:34:03.081Z,1.47
2018-07-17T19:36:30.634Z,2.77
2018-07-17T19:38:58.197Z,1.70
2018-07-17T19:41:25.674Z,1.53
2018-07-17T19:43:53.121Z,2.70
2018-07-17T19:46:20.685Z,5.00
2018-07-17T19:48:48.161Z,2.90
2018-07-17T19:51:16.431Z,4.83
2018-07-17T19:53:43.900Z,1.90
2018-07-17T19:56:11.359Z,2.17
2018-07-17T19:58:38.908Z,1.63
2018-07-17T20:01:06.484Z,2.33
2018-07-17T20:03:33.940Z,2.40
2018-07-17T20:06:01.437Z,2.43
2018-07-17T20:08:28.960Z,6.80
2018-07-17T20:10:56.378Z,2.00
2018-07-17T20:13:23.899Z,2.10
2018-07-17T20:15:52.172Z,3.37
2018-07-17T20:18:19.636Z,3.33
2018-07-17T20:20:47.090Z,2.73
2018-07-17T20:23:14.553Z,1.47
2018-07-17T20:25:42.773Z,2.70
2018-07-17T20:28:11.080Z,3.50
2018-07-17T20:30:38.565Z,2.80
2018-07-17T20:33:06.053Z,2.70
2018-07-17T20:35:33.500Z,2.83
2018-07-17T20:38:02.799Z,3.30
2018-07-17T20:40:30.247Z,2.93
2018-07-17T20:42:57.782Z,2.20
2018-07-17T20:45:26.117Z,1.80
2018-07-17T20:47:53.681Z,4.10
2018-07-17T20:50:21.256Z,3.17
2018-07-17T20:52:49.484Z,4.20
2018-07-17T20:55:16.957Z,4.37
2018-07-17T20:57:44.420Z,2.77
2018-07-17T21:00:11.890Z,2.53
2018-07-17T21:02:39.391Z,1.90
2018-07-17T21:05:08.383Z,2.10
2018-07-17T21:07:35.838Z,3.00
2018-07-17T21:10:03.324Z,2.00
2018-07-17T21:12:31.551Z,2.80
2018-07-17T21:14:59.021Z,3.57
2018-07-17T21:17:27.301Z,2.80
2018-07-17T21:19:54.759Z,2.77
2018-07-17T21:22:22.244Z,3.13
2018-07-17T21:24:49.709Z,1.90
2018-07-17T21:27:17.172Z,1.60
2018-07-17T21:29:44.633Z,2.50
2018-07-17T21:32:12.096Z,2.27
2018-07-17T21:34:39.653Z,4.00
2018-07-17T21:37:07.226Z,4.67
2018-07-17T21:39:34.793Z,1.80
2018-07-17T21:42:02.247Z,2.63
2018-07-17T21:44:29.714Z,5.67
2018-07-17T21:46:57.275Z,3.00
2018-07-17T21:49:24.748Z,3.33
2018-07-17T21:51:53.719Z,2.90
2018-07-17T21:54:21.177Z,2.53
2018-07-17T21:56:48.639Z,2.17
2018-07-17T21:59:16.099Z,3.77
2018-07-17T22:01:43.597Z,1.97
2018-07-17T22:04:11.188Z,2.77
2018-07-17T22:06:39.567Z,1.77
2018-07-17T22:09:07.833Z,2.17
2018-07-17T22:11:35.412Z,2.97
2018-07-17T22:14:03.693Z,3.20
2018-07-17T22:16:31.961Z,1.97
2018-07-17T22:18:59.461Z,2.07
2018-07-17T22:21:26.972Z,1.67
2018-07-17T22:23:55.282Z,2.53
2018-07-17T22:26:23.549Z,1.77
2018-07-17T22:28:51.840Z,3.77
2018-07-17T22:31:20.095Z,4.23
2018-07-17T22:33:47.586Z,2.53
2018-07-17T22:36:15.856Z,2.37
2018-07-17T22:38:43.429Z,2.47
2018-07-17T22:41:11.708Z,2.93
2018-07-17T22:43:41.710Z,3.23
2018-07-17T22:46:09.973Z,2.47
2018-07-17T22:48:37.577Z,2.60
2018-07-17T22:51:05.849Z,2.30
2018-07-17T22:53:33.333Z,1.47
2018-07-17T22:56:00.833Z,2.13
2018-07-17T22:58:28.450Z,2.00
2018-07-17T23:00:56.719Z,2.67
2018-07-17T23:03:24.224Z,2.30
2018-07-17T23:05:51.734Z,3.67
2018-07-17T23:08:19.992Z,2.00
2018-07-17T23:10:47.501Z,3.40
2018-07-17T23:13:15.781Z,3.57
2018-07-17T23:15:44.040Z,1.70
2018-07-17T23:18:12.310Z,2.70
2018-07-17T23:20:39.794Z,1.50
2018-07-17T23:23:07.371Z,2.63
2018-07-17T23:25:35.646Z,2.90
2018-07-17T23:28:03.934Z,1.40
2018-07-17T23:30:32.210Z,5.00
2018-07-17T23:33:00.480Z,2.43
2018-07-17T23:35:28.044Z,3.27
2018-07-17T23:37:55.612Z,2.23
2018-07-17T23:40:23.115Z,2.73
2018-07-17T23:42:50.607Z,1.77
2018-07-17T23:45:18.210Z,3.07
2018-07-17T23:47:46.469Z,3.10
2018-07-17T23:50:13.980Z,4.00
2018-07-17T23:52:41.483Z,2.57
2018-07-17T23:55:08.989Z,2.97
2018-07-17T23:57:37.265Z,3.20
